sensor_id;sensor_type;location;lat;lon;timestamp;temperature;humidity
7622;DHT22;3852;52.284;8.032;2022-11-04T00:01:59;12.10;99.90
7622;DHT22;3852;52.284;8.032;2022-11-04T00:04:27;12.20;99.90
7622;DHT22;3852;52.284;8.032;2022-11-04T00:06:54;12.30;99.90
7622;DHT22;3852;52.284;8.032;2022-11-04T00:09:27;12.20;99.90
7622;DHT22;3852;52.284;8.032;2022-11-04T00:11:54;12.20;99.90
7622;DHT22;3852;52.284;8.032;2022-11-04T00:14:39;12.20;99.90
7622;DHT22;3852;52.284;8.032;2022-11-04T00:17:07;12.20;99.90
7622;DHT22;3852;52.284;8.032;2022-11-04T00:19:52;12.20;99.90
7622;DHT22;3852;52.284;8.032;2022-11-04T00:22:39;12.20;99.90
7622;DHT22;3852;52.284;8.032;2022-11-04T00:25:25;12.30;99.90
7622;DHT22;3852;52.284;8.032;2022-11-04T00:28:16;12.20;99.90
7622;DHT22;3852;52.284;8.032;2022-11-04T00:31:07;12.30;99.90
7622;DHT22;3852;52.284;8.032;2022-11-04T00:33:53;12.30;99.90
7622;DHT22;3852;52.284;8.032;2022-11-04T00:36:24;12.30;99.90
7622;DHT22;3852;52.284;8.032;2022-11-04T00:38:50;12.30;99.90
7622;DHT22;3852;52.284;8.032;2022-11-04T00:41:16;12.40;99.90
7622;DHT22;3852;52.284;8.032;2022-11-04T00:43:53;12.40;99.90
7622;DHT22;3852;52.284;8.032;2022-11-04T00:46:20;12.20;99.90
7622;DHT22;3852;52.284;8.032;2022-11-04T00:48:46;12.10;99.90
7622;DHT22;3852;52.284;8.032;2022-11-04T00:51:13;11.90;99.90
7622;DHT22;3852;52.284;8.032;2022-11-04T00:53:39;11.60;99.90
7622;DHT22;3852;52.284;8.032;2022-11-04T00:56:05;11.40;99.90
7622;DHT22;3852;52.284;8.032;2022-11-04T00:58:30;11.20;99.90
7622;DHT22;3852;52.284;8.032;2022-11-04T01:00:56;11.20;99.90
7622;DHT22;3852;52.284;8.032;2022-11-04T01:03:22;11.30;99.90
7622;DHT22;3852;52.284;8.032;2022-11-04T01:05:48;11.20;99.90
7622;DHT22;3852;52.284;8.032;2022-11-04T01:08:13;11.20;99.90
7622;DHT22;3852;52.284;8.032;2022-11-04T01:10:39;11.10;99.90
7622;DHT22;3852;52.284;8.032;2022-11-04T01:13:12;11.10;99.90
7622;DHT22;3852;52.284;8.032;2022-11-04T01:15:39;11.00;99.90
7622;DHT22;3852;52.284;8.032;2022-11-04T01:18:05;11.00;99.90
7622;DHT22;3852;52.284;8.032;2022-11-04T01:20:32;11.00;99.90
7622;DHT22;3852;52.284;8.032;2022-11-04T01:22:58;11.00;99.90
7622;DHT22;3852;52.284;8.032;2022-11-04T01:25:24;10.90;99.90
7622;DHT22;3852;52.284;8.032;2022-11-04T01:27:50;10.90;99.90
7622;DHT22;3852;52.284;8.032;2022-11-04T01:30:16;10.90;99.90
7622;DHT22;3852;52.284;8.032;2022-11-04T01:32:41;10.90;99.90
7622;DHT22;3852;52.284;8.032;2022-11-04T01:35:07;10.90;99.90
7622;DHT22;3852;52.284;8.032;2022-11-04T01:37:33;10.80;99.90
7622;DHT22;3852;52.284;8.032;2022-11-04T01:39:59;10.80;99.90
7622;DHT22;3852;52.284;8.032;2022-11-04T01:42:25;10.80;99.90
7622;DHT22;3852;52.284;8.032;2022-11-04T01:44:58;10.80;99.90
7622;DHT22;3852;52.284;8.032;2022-11-04T01:47:34;10.80;99.90
7622;DHT22;3852;52.284;8.032;2022-11-04T01:50:11;10.80;99.90
7622;DHT22;3852;52.284;8.032;2022-11-04T01:55:55;10.70;99.90
7622;DHT22;3852;52.284;8.032;2022-11-04T01:58:33;10.70;99.90
7622;DHT22;3852;52.284;8.032;2022-11-04T02:01:00;10.70;99.90
7622;DHT22;3852;52.284;8.032;2022-11-04T02:03:31;10.70;99.90
7622;DHT22;3852;52.284;8.032;2022-11-04T02:05:59;10.80;99.90
7622;DHT22;3852;52.284;8.032;2022-11-04T02:08:27;10.80;99.90
7622;DHT22;3852;52.284;8.032;2022-11-04T02:10:57;10.90;99.90
7622;DHT22;3852;52.284;8.032;2022-11-04T02:13:29;10.90;99.90
7622;DHT22;3852;52.284;8.032;2022-11-04T02:16:20;10.80;99.90
7622;DHT22;3852;52.284;8.032;2022-11-04T02:19:26;10.80;99.90
7622;DHT22;3852;52.284;8.032;2022-11-04T02:22:30;10.80;99.90
7622;DHT22;3852;52.284;8.032;2022-11-04T02:31:18;11.00;99.90
7622;DHT22;3852;52.284;8.032;2022-11-04T02:36:57;10.90;99.90
7622;DHT22;3852;52.284;8.032;2022-11-04T02:39:55;10.90;99.90
7622;DHT22;3852;52.284;8.032;2022-11-04T02:42:56;10.90;99.90
7622;DHT22;3852;52.284;8.032;2022-11-04T02:51:12;10.90;99.90
7622;DHT22;3852;52.284;8.032;2022-11-04T02:53:49;10.90;99.90
7622;DHT22;3852;52.284;8.032;2022-11-04T02:56:43;10.90;99.90
7622;DHT22;3852;52.284;8.032;2022-11-04T03:02:07;10.90;99.90
7622;DHT22;3852;52.284;8.032;2022-11-04T03:04:41;11.00;99.90
7622;DHT22;3852;52.284;8.032;2022-11-04T03:07:11;11.00;99.90
7622;DHT22;3852;52.284;8.032;2022-11-04T03:09:43;11.00;99.90
7622;DHT22;3852;52.284;8.032;2022-11-04T03:12:15;10.90;99.90
7622;DHT22;3852;52.284;8.032;2022-11-04T03:14:47;10.90;99.90
7622;DHT22;3852;52.284;8.032;2022-11-04T03:17:33;10.90;99.90
7622;DHT22;3852;52.284;8.032;2022-11-04T03:20:08;10.80;99.90
7622;DHT22;3852;52.284;8.032;2022-11-04T03:22:37;10.80;99.90
7622;DHT22;3852;52.284;8.032;2022-11-04T03:25:05;10.70;99.90
7622;DHT22;3852;52.284;8.032;2022-11-04T03:27:44;10.70;99.90
7622;DHT22;3852;52.284;8.032;2022-11-04T03:30:25;10.60;99.90
7622;DHT22;3852;52.284;8.032;2022-11-04T03:33:11;10.70;99.90
7622;DHT22;3852;52.284;8.032;2022-11-04T03:35:43;10.60;99.90
7622;DHT22;3852;52.284;8.032;2022-11-04T03:38:11;10.50;99.90
7622;DHT22;3852;52.284;8.032;2022-11-04T03:40:37;10.50;99.90
7622;DHT22;3852;52.284;8.032;2022-11-04T03:43:16;10.40;99.90
7622;DHT22;3852;52.284;8.032;2022-11-04T03:45:45;10.40;99.90
7622;DHT22;3852;52.284;8.032;2022-11-04T03:48:12;10.40;99.90
7622;DHT22;3852;52.284;8.032;2022-11-04T03:50:46;10.30;99.90
7622;DHT22;3852;52.284;8.032;2022-11-04T03:53:14;10.20;99.90
7622;DHT22;3852;52.284;8.032;2022-11-04T03:55:58;10.20;99.90
7622;DHT22;3852;52.284;8.032;2022-11-04T04:14:05;10.20;99.90
7622;DHT22;3852;52.284;8.032;2022-11-04T04:16:43;10.20;99.90
7622;DHT22;3852;52.284;8.032;2022-11-04T04:19:13;10.30;99.90
7622;DHT22;3852;52.284;8.032;2022-11-04T04:21:45;10.20;99.90
7622;DHT22;3852;52.284;8.032;2022-11-04T04:24:17;10.20;99.90
7622;DHT22;3852;52.284;8.032;2022-11-04T04:27:03;10.30;99.90
7622;DHT22;3852;52.284;8.032;2022-11-04T04:29:49;10.20;99.90
7622;DHT22;3852;52.284;8.032;2022-11-04T04:32:17;10.30;99.90
7622;DHT22;3852;52.284;8.032;2022-11-04T04:34:45;10.30;99.90
7622;DHT22;3852;52.284;8.032;2022-11-04T04:37:18;10.40;99.90
7622;DHT22;3852;52.284;8.032;2022-11-04T04:39:58;10.30;99.90
7622;DHT22;3852;52.284;8.032;2022-11-04T04:42:43;10.40;99.90
7622;DHT22;3852;52.284;8.032;2022-11-04T04:45:33;10.40;99.90
7622;DHT22;3852;52.284;8.032;2022-11-04T04:48:01;10.50;99.90
7622;DHT22;3852;52.284;8.032;2022-11-04T04:50:34;10.40;99.90
7622;DHT22;3852;52.284;8.032;2022-11-04T04:53:02;10.50;99.90
7622;DHT22;3852;52.284;8.032;2022-11-04T04:55:30;10.40;99.90
7622;DHT22;3852;52.284;8.032;2022-11-04T04:57:59;10.40;99.90
7622;DHT22;3852;52.284;8.032;2022-11-04T05:00:27;10.40;99.90
7622;DHT22;3852;52.284;8.032;2022-11-04T05:02:54;10.40;99.90
7622;DHT22;3852;52.284;8.032;2022-11-04T05:05:20;10.40;99.90
7622;DHT22;3852;52.284;8.032;2022-11-04T05:07:46;10.50;99.90
7622;DHT22;3852;52.284;8.032;2022-11-04T05:10:14;10.40;99.90
7622;DHT22;3852;52.284;8.032;2022-11-04T05:12:41;10.40;99.90
7622;DHT22;3852;52.284;8.032;2022-11-04T05:15:26;10.50;99.90
7622;DHT22;3852;52.284;8.032;2022-11-04T05:17:54;10.50;99.90
7622;DHT22;3852;52.284;8.032;2022-11-04T05:20:25;10.50;99.90
7622;DHT22;3852;52.284;8.032;2022-11-04T05:22:51;10.50;99.90
7622;DHT22;3852;52.284;8.032;2022-11-04T05:25:18;10.50;99.90
7622;DHT22;3852;52.284;8.032;2022-11-04T05:27:44;10.50;99.90
7622;DHT22;3852;52.284;8.032;2022-11-04T05:30:10;10.40;99.90
7622;DHT22;3852;52.284;8.032;2022-11-04T05:32:36;10.40;99.90
7622;DHT22;3852;52.284;8.032;2022-11-04T05:35:02;10.40;99.90
7622;DHT22;3852;52.284;8.032;2022-11-04T05:37:28;10.30;99.90
7622;DHT22;3852;52.284;8.032;2022-11-04T05:39:54;10.30;99.90
7622;DHT22;3852;52.284;8.032;2022-11-04T05:42:19;10.30;99.90
7622;DHT22;3852;52.284;8.032;2022-11-04T05:44:45;10.40;99.90
7622;DHT22;3852;52.284;8.032;2022-11-04T05:47:11;10.40;99.90
7622;DHT22;3852;52.284;8.032;2022-11-04T05:49:37;10.50;99.90
7622;DHT22;3852;52.284;8.032;2022-11-04T05:52:03;10.50;99.90
7622;DHT22;3852;52.284;8.032;2022-11-04T05:54:29;10.40;99.90
7622;DHT22;3852;52.284;8.032;2022-11-04T05:56:55;10.40;99.90
7622;DHT22;3852;52.284;8.032;2022-11-04T05:59:21;10.50;99.90
7622;DHT22;3852;52.284;8.032;2022-11-04T06:01:47;10.60;99.90
7622;DHT22;3852;52.284;8.032;2022-11-04T06:04:16;10.50;99.90
7622;DHT22;3852;52.284;8.032;2022-11-04T06:06:42;10.60;99.90
7622;DHT22;3852;52.284;8.032;2022-11-04T06:09:09;10.40;99.90
7622;DHT22;3852;52.284;8.032;2022-11-04T06:11:35;10.50;99.90
7622;DHT22;3852;52.284;8.032;2022-11-04T06:14:02;10.50;99.90
7622;DHT22;3852;52.284;8.032;2022-11-04T06:16:28;10.40;99.90
7622;DHT22;3852;52.284;8.032;2022-11-04T06:18:54;10.40;99.90
7622;DHT22;3852;52.284;8.032;2022-11-04T06:21:25;10.50;99.90
7622;DHT22;3852;52.284;8.032;2022-11-04T06:23:56;10.50;99.90
7622;DHT22;3852;52.284;8.032;2022-11-04T06:26:23;10.50;99.90
7622;DHT22;3852;52.284;8.032;2022-11-04T06:28:50;10.40;99.90
7622;DHT22;3852;52.284;8.032;2022-11-04T06:31:17;10.50;99.90
7622;DHT22;3852;52.284;8.032;2022-11-04T06:33:44;10.40;99.90
7622;DHT22;3852;52.284;8.032;2022-11-04T06:36:12;10.40;99.90
7622;DHT22;3852;52.284;8.032;2022-11-04T06:38:38;10.40;99.90
7622;DHT22;3852;52.284;8.032;2022-11-04T06:41:06;10.30;99.90
7622;DHT22;3852;52.284;8.032;2022-11-04T06:43:35;10.30;99.90
7622;DHT22;3852;52.284;8.032;2022-11-04T06:46:01;10.30;99.90
7622;DHT22;3852;52.284;8.032;2022-11-04T06:48:28;10.20;99.90
7622;DHT22;3852;52.284;8.032;2022-11-04T06:50:58;10.20;99.90
7622;DHT22;3852;52.284;8.032;2022-11-04T06:53:26;10.10;99.90
7622;DHT22;3852;52.284;8.032;2022-11-04T06:55:53;10.20;99.90
7622;DHT22;3852;52.284;8.032;2022-11-04T06:58:19;10.10;99.90
7622;DHT22;3852;52.284;8.032;2022-11-04T07:00:53;10.20;99.90
7622;DHT22;3852;52.284;8.032;2022-11-04T07:03:19;10.40;99.90
7622;DHT22;3852;52.284;8.032;2022-11-04T07:05:45;10.20;99.90
7622;DHT22;3852;52.284;8.032;2022-11-04T07:08:11;10.20;99.90
7622;DHT22;3852;52.284;8.032;2022-11-04T07:10:37;10.20;99.90
7622;DHT22;3852;52.284;8.032;2022-11-04T07:13:02;10.30;99.90
7622;DHT22;3852;52.284;8.032;2022-11-04T07:15:28;10.20;99.90
7622;DHT22;3852;52.284;8.032;2022-11-04T07:17:54;10.20;99.90
7622;DHT22;3852;52.284;8.032;2022-11-04T07:20:20;10.30;99.90
7622;DHT22;3852;52.284;8.032;2022-11-04T07:22:45;10.30;99.90
7622;DHT22;3852;52.284;8.032;2022-11-04T07:25:11;10.40;99.90
7622;DHT22;3852;52.284;8.032;2022-11-04T07:27:37;10.30;99.90
7622;DHT22;3852;52.284;8.032;2022-11-04T07:30:04;10.30;99.90
7622;DHT22;3852;52.284;8.032;2022-11-04T07:32:31;10.30;99.90
7622;DHT22;3852;52.284;8.032;2022-11-04T07:34:57;10.20;99.90
7622;DHT22;3852;52.284;8.032;2022-11-04T07:37:25;10.20;99.90
7622;DHT22;3852;52.284;8.032;2022-11-04T07:39:51;10.10;99.90
7622;DHT22;3852;52.284;8.032;2022-11-04T07:42:17;10.20;99.90
7622;DHT22;3852;52.284;8.032;2022-11-04T07:44:42;10.10;99.90
7622;DHT22;3852;52.284;8.032;2022-11-04T07:47:08;10.20;99.90
7622;DHT22;3852;52.284;8.032;2022-11-04T07:49:34;10.10;99.90
7622;DHT22;3852;52.284;8.032;2022-11-04T07:52:00;10.10;99.90
7622;DHT22;3852;52.284;8.032;2022-11-04T07:54:27;10.10;99.90
7622;DHT22;3852;52.284;8.032;2022-11-04T07:56:53;10.10;99.90
7622;DHT22;3852;52.284;8.032;2022-11-04T07:59:19;10.10;99.90
7622;DHT22;3852;52.284;8.032;2022-11-04T08:01:44;10.10;99.90
7622;DHT22;3852;52.284;8.032;2022-11-04T08:04:11;10.20;99.90
7622;DHT22;3852;52.284;8.032;2022-11-04T08:06:36;10.20;99.90
7622;DHT22;3852;52.284;8.032;2022-11-04T08:09:02;10.40;99.90
7622;DHT22;3852;52.284;8.032;2022-11-04T08:11:29;10.40;99.90
7622;DHT22;3852;52.284;8.032;2022-11-04T08:13:55;10.50;99.90
7622;DHT22;3852;52.284;8.032;2022-11-04T08:16:23;10.50;99.90
7622;DHT22;3852;52.284;8.032;2022-11-04T08:18:51;10.50;99.90
7622;DHT22;3852;52.284;8.032;2022-11-04T08:21:18;10.60;99.90
7622;DHT22;3852;52.284;8.032;2022-11-04T08:23:45;10.60;99.90
7622;DHT22;3852;52.284;8.032;2022-11-04T08:26:15;10.60;99.90
7622;DHT22;3852;52.284;8.032;2022-11-04T08:28:42;10.70;99.90
7622;DHT22;3852;52.284;8.032;2022-11-04T08:31:14;10.70;99.90
7622;DHT22;3852;52.284;8.032;2022-11-04T08:33:43;10.70;99.90
7622;DHT22;3852;52.284;8.032;2022-11-04T08:36:16;10.70;99.90
7622;DHT22;3852;52.284;8.032;2022-11-04T08:38:46;10.80;99.90
7622;DHT22;3852;52.284;8.032;2022-11-04T08:41:14;10.80;99.90
7622;DHT22;3852;52.284;8.032;2022-11-04T08:43:44;10.80;99.90
7622;DHT22;3852;52.284;8.032;2022-11-04T08:46:11;10.80;99.90
7622;DHT22;3852;52.284;8.032;2022-11-04T08:48:38;10.90;99.90
7622;DHT22;3852;52.284;8.032;2022-11-04T08:51:09;11.00;99.90
7622;DHT22;3852;52.284;8.032;2022-11-04T08:53:40;10.90;99.90
7622;DHT22;3852;52.284;8.032;2022-11-04T08:56:26;10.90;99.90
7622;DHT22;3852;52.284;8.032;2022-11-04T08:58:55;11.00;99.90
7622;DHT22;3852;52.284;8.032;2022-11-04T09:01:23;11.10;99.90
7622;DHT22;3852;52.284;8.032;2022-11-04T09:03:50;11.10;99.90
7622;DHT22;3852;52.284;8.032;2022-11-04T09:06:19;11.20;99.90
7622;DHT22;3852;52.284;8.032;2022-11-04T09:08:47;11.30;99.90
7622;DHT22;3852;52.284;8.032;2022-11-04T09:11:14;11.40;99.90
7622;DHT22;3852;52.284;8.032;2022-11-04T09:13:41;11.50;99.90
7622;DHT22;3852;52.284;8.032;2022-11-04T09:16:09;11.40;99.90
7622;DHT22;3852;52.284;8.032;2022-11-04T09:18:36;11.20;99.90
7622;DHT22;3852;52.284;8.032;2022-11-04T09:21:04;11.10;99.90
7622;DHT22;3852;52.284;8.032;2022-11-04T09:23:31;11.10;99.90
7622;DHT22;3852;52.284;8.032;2022-11-04T09:26:03;11.00;99.90
7622;DHT22;3852;52.284;8.032;2022-11-04T09:28:33;11.20;99.90
7622;DHT22;3852;52.284;8.032;2022-11-04T09:30:59;11.30;99.90
7622;DHT22;3852;52.284;8.032;2022-11-04T09:33:29;11.20;99.90
7622;DHT22;3852;52.284;8.032;2022-11-04T09:35:56;11.30;99.90
7622;DHT22;3852;52.284;8.032;2022-11-04T09:38:22;11.50;99.90
7622;DHT22;3852;52.284;8.032;2022-11-04T09:40:49;11.60;99.90
7622;DHT22;3852;52.284;8.032;2022-11-04T09:46:09;11.40;99.90
7622;DHT22;3852;52.284;8.032;2022-11-04T09:48:40;11.40;99.90
7622;DHT22;3852;52.284;8.032;2022-11-04T09:51:10;11.30;99.90
7622;DHT22;3852;52.284;8.032;2022-11-04T09:53:50;11.30;99.90
7622;DHT22;3852;52.284;8.032;2022-11-04T09:56:21;11.40;99.90
7622;DHT22;3852;52.284;8.032;2022-11-04T09:58:49;11.40;99.90
7622;DHT22;3852;52.284;8.032;2022-11-04T10:10:05;11.80;99.90
7622;DHT22;3852;52.284;8.032;2022-11-04T10:12:52;11.80;99.90
7622;DHT22;3852;52.284;8.032;2022-11-04T10:21:10;11.90;99.90
7622;DHT22;3852;52.284;8.032;2022-11-04T10:26:53;12.20;99.90
7622;DHT22;3852;52.284;8.032;2022-11-04T10:29:26;12.20;99.90
7622;DHT22;3852;52.284;8.032;2022-11-04T10:32:02;12.40;99.90
7622;DHT22;3852;52.284;8.032;2022-11-04T10:34:53;12.50;99.90
7622;DHT22;3852;52.284;8.032;2022-11-04T10:37:26;12.30;99.90
7622;DHT22;3852;52.284;8.032;2022-11-04T10:39:59;12.50;99.90
7622;DHT22;3852;52.284;8.032;2022-11-04T10:42:51;12.60;99.90
7622;DHT22;3852;52.284;8.032;2022-11-04T10:45:20;12.60;99.90
7622;DHT22;3852;52.284;8.032;2022-11-04T10:47:57;12.60;99.90
7622;DHT22;3852;52.284;8.032;2022-11-04T10:50:56;12.50;99.90
7622;DHT22;3852;52.284;8.032;2022-11-04T10:53:25;12.40;99.90
7622;DHT22;3852;52.284;8.032;2022-11-04T10:56:05;12.60;99.90
7622;DHT22;3852;52.284;8.032;2022-11-04T10:58:45;12.70;99.90
7622;DHT22;3852;52.284;8.032;2022-11-04T11:01:32;12.80;99.90
7622;DHT22;3852;52.284;8.032;2022-11-04T11:04:00;12.70;99.90
7622;DHT22;3852;52.284;8.032;2022-11-04T11:06:31;12.70;99.90
7622;DHT22;3852;52.284;8.032;2022-11-04T11:11:46;12.40;99.90
7622;DHT22;3852;52.284;8.032;2022-11-04T11:16:53;12.20;99.90
7622;DHT22;3852;52.284;8.032;2022-11-04T11:19:21;12.10;99.90
7622;DHT22;3852;52.284;8.032;2022-11-04T11:21:55;11.80;99.90
7622;DHT22;3852;52.284;8.032;2022-11-04T11:24:23;11.80;99.90
7622;DHT22;3852;52.284;8.032;2022-11-04T11:26:53;11.80;99.90
7622;DHT22;3852;52.284;8.032;2022-11-04T11:29:31;11.80;99.90
7622;DHT22;3852;52.284;8.032;2022-11-04T11:32:06;12.10;99.90
7622;DHT22;3852;52.284;8.032;2022-11-04T11:34:49;12.30;99.90
7622;DHT22;3852;52.284;8.032;2022-11-04T11:37:21;12.40;99.90
7622;DHT22;3852;52.284;8.032;2022-11-04T11:39:48;12.50;99.90
7622;DHT22;3852;52.284;8.032;2022-11-04T11:42:14;12.70;99.90
7622;DHT22;3852;52.284;8.032;2022-11-04T11:47:35;12.80;99.90
7622;DHT22;3852;52.284;8.032;2022-11-04T11:50:29;12.70;99.90
7622;DHT22;3852;52.284;8.032;2022-11-04T11:53:17;12.60;99.90
7622;DHT22;3852;52.284;8.032;2022-11-04T11:59:05;12.60;99.90
7622;DHT22;3852;52.284;8.032;2022-11-04T12:01:48;12.80;99.90
7622;DHT22;3852;52.284;8.032;2022-11-04T12:04:16;13.10;99.90
7622;DHT22;3852;52.284;8.032;2022-11-04T12:18:55;13.50;99.90
7622;DHT22;3852;52.284;8.032;2022-11-04T12:21:26;13.70;99.90
7622;DHT22;3852;52.284;8.032;2022-11-04T12:26:35;13.70;99.90
7622;DHT22;3852;52.284;8.032;2022-11-04T12:38:05;13.00;99.90
7622;DHT22;3852;52.284;8.032;2022-11-04T12:40:59;13.10;99.90
7622;DHT22;3852;52.284;8.032;2022-11-04T12:58:12;13.40;99.90
7622;DHT22;3852;52.284;8.032;2022-11-04T13:00:43;13.30;99.90
7622;DHT22;3852;52.284;8.032;2022-11-04T13:03:26;13.30;99.90
7622;DHT22;3852;52.284;8.032;2022-11-04T13:08:52;13.10;99.90
7622;DHT22;3852;52.284;8.032;2022-11-04T13:11:53;13.20;99.90
7622;DHT22;3852;52.284;8.032;2022-11-04T13:14:27;13.20;99.90
7622;DHT22;3852;52.284;8.032;2022-11-04T13:17:06;13.00;99.90
7622;DHT22;3852;52.284;8.032;2022-11-04T13:19:45;13.00;99.90
7622;DHT22;3852;52.284;8.032;2022-11-04T13:22:35;12.90;99.90
7622;DHT22;3852;52.284;8.032;2022-11-04T13:27:44;13.00;99.90
7622;DHT22;3852;52.284;8.032;2022-11-04T13:33:32;13.00;99.90
7622;DHT22;3852;52.284;8.032;2022-11-04T13:36:31;13.10;99.90
7622;DHT22;3852;52.284;8.032;2022-11-04T13:39:25;13.40;99.90
7622;DHT22;3852;52.284;8.032;2022-11-04T13:42:13;13.40;99.90
7622;DHT22;3852;52.284;8.032;2022-11-04T13:44:47;13.60;99.90
7622;DHT22;3852;52.284;8.032;2022-11-04T13:47:19;13.70;99.90
7622;DHT22;3852;52.284;8.032;2022-11-04T13:49:53;13.80;99.90
7622;DHT22;3852;52.284;8.032;2022-11-04T13:52:20;13.70;99.90
7622;DHT22;3852;52.284;8.032;2022-11-04T13:55:02;13.50;99.90
7622;DHT22;3852;52.284;8.032;2022-11-04T13:57:32;13.40;99.90
7622;DHT22;3852;52.284;8.032;2022-11-04T14:10:59;13.20;99.90
7622;DHT22;3852;52.284;8.032;2022-11-04T14:16:37;13.00;99.90
7622;DHT22;3852;52.284;8.032;2022-11-04T14:22:15;13.00;99.90
7622;DHT22;3852;52.284;8.032;2022-11-04T14:24:42;13.00;99.90
7622;DHT22;3852;52.284;8.032;2022-11-04T14:27:29;13.00;99.90
7622;DHT22;3852;52.284;8.032;2022-11-04T14:29:59;12.90;99.90
7622;DHT22;3852;52.284;8.032;2022-11-04T14:32:30;12.90;99.90
7622;DHT22;3852;52.284;8.032;2022-11-04T14:35:05;13.00;99.90
7622;DHT22;3852;52.284;8.032;2022-11-04T14:37:35;12.90;99.90
7622;DHT22;3852;52.284;8.032;2022-11-04T14:40:05;12.90;99.90
7622;DHT22;3852;52.284;8.032;2022-11-04T14:42:53;12.90;99.90
7622;DHT22;3852;52.284;8.032;2022-11-04T14:45:30;13.00;99.90
7622;DHT22;3852;52.284;8.032;2022-11-04T14:48:16;13.00;99.90
7622;DHT22;3852;52.284;8.032;2022-11-04T14:50:46;12.90;99.90
7622;DHT22;3852;52.284;8.032;2022-11-04T14:53:22;12.90;99.90
7622;DHT22;3852;52.284;8.032;2022-11-04T14:56:09;12.80;99.90
7622;DHT22;3852;52.284;8.032;2022-11-04T14:59:00;12.80;99.90
7622;DHT22;3852;52.284;8.032;2022-11-04T15:01:30;12.80;99.90
7622;DHT22;3852;52.284;8.032;2022-11-04T15:04:12;12.80;99.90
7622;DHT22;3852;52.284;8.032;2022-11-04T15:06:41;12.80;99.90
7622;DHT22;3852;52.284;8.032;2022-11-04T15:09:46;12.70;99.90
7622;DHT22;3852;52.284;8.032;2022-11-04T15:12:16;12.60;99.90
7622;DHT22;3852;52.284;8.032;2022-11-04T15:15:24;12.60;99.90
7622;DHT22;3852;52.284;8.032;2022-11-04T15:17:53;12.60;99.90
7622;DHT22;3852;52.284;8.032;2022-11-04T15:20:28;12.60;99.90
7622;DHT22;3852;52.284;8.032;2022-11-04T15:23:00;12.70;99.90
7622;DHT22;3852;52.284;8.032;2022-11-04T15:25:27;12.70;99.90
7622;DHT22;3852;52.284;8.032;2022-11-04T15:27:54;12.60;99.90
7622;DHT22;3852;52.284;8.032;2022-11-04T15:30:23;12.70;99.90
7622;DHT22;3852;52.284;8.032;2022-11-04T15:33:00;12.70;99.90
7622;DHT22;3852;52.284;8.032;2022-11-04T15:35:31;12.60;99.90
7622;DHT22;3852;52.284;8.032;2022-11-04T15:38:00;12.60;99.90
7622;DHT22;3852;52.284;8.032;2022-11-04T15:40:28;12.60;99.90
7622;DHT22;3852;52.284;8.032;2022-11-04T15:42:55;12.60;99.90
7622;DHT22;3852;52.284;8.032;2022-11-04T15:45:37;12.50;99.90
7622;DHT22;3852;52.284;8.032;2022-11-04T15:48:30;12.50;99.90
7622;DHT22;3852;52.284;8.032;2022-11-04T15:54:33;12.20;99.90
7622;DHT22;3852;52.284;8.032;2022-11-04T15:56:55;12.20;99.90
7622;DHT22;3852;52.284;8.032;2022-11-04T15:59:32;12.10;99.90
7622;DHT22;3852;52.284;8.032;2022-11-04T16:02:01;12.00;99.90
7622;DHT22;3852;52.284;8.032;2022-11-04T16:04:28;11.90;99.90
7622;DHT22;3852;52.284;8.032;2022-11-04T16:10:21;11.70;99.90
7622;DHT22;3852;52.284;8.032;2022-11-04T16:12:58;11.60;99.90
7622;DHT22;3852;52.284;8.032;2022-11-04T16:15:37;11.40;99.90
7622;DHT22;3852;52.284;8.032;2022-11-04T16:18:17;11.40;99.90
7622;DHT22;3852;52.284;8.032;2022-11-04T16:20:49;11.30;99.90
7622;DHT22;3852;52.284;8.032;2022-11-04T16:23:20;11.20;99.90
7622;DHT22;3852;52.284;8.032;2022-11-04T16:26:00;11.10;99.90
7622;DHT22;3852;52.284;8.032;2022-11-04T16:28:34;11.10;99.90
7622;DHT22;3852;52.284;8.032;2022-11-04T16:31:04;11.10;99.90
7622;DHT22;3852;52.284;8.032;2022-11-04T16:33:48;11.00;99.90
7622;DHT22;3852;52.284;8.032;2022-11-04T16:36:14;11.00;99.90
7622;DHT22;3852;52.284;8.032;2022-11-04T16:38:55;10.90;99.90
7622;DHT22;3852;52.284;8.032;2022-11-04T16:41:24;10.80;99.90
7622;DHT22;3852;52.284;8.032;2022-11-04T16:43:52;10.70;99.90
7622;DHT22;3852;52.284;8.032;2022-11-04T16:46:19;10.70;99.90
7622;DHT22;3852;52.284;8.032;2022-11-04T16:48:47;10.70;99.90
7622;DHT22;3852;52.284;8.032;2022-11-04T16:51:18;10.70;99.90
7622;DHT22;3852;52.284;8.032;2022-11-04T16:53:50;10.70;99.90
7622;DHT22;3852;52.284;8.032;2022-11-04T16:56:20;10.60;99.90
7622;DHT22;3852;52.284;8.032;2022-11-04T16:58:47;10.50;99.90
7622;DHT22;3852;52.284;8.032;2022-11-04T17:01:14;10.50;99.90
7622;DHT22;3852;52.284;8.032;2022-11-04T17:03:40;10.50;99.90
7622;DHT22;3852;52.284;8.032;2022-11-04T17:06:14;10.50;99.90
7622;DHT22;3852;52.284;8.032;2022-11-04T17:08:40;10.50;99.90
7622;DHT22;3852;52.284;8.032;2022-11-04T17:11:07;10.50;99.90
7622;DHT22;3852;52.284;8.032;2022-11-04T17:13:33;10.50;99.90
7622;DHT22;3852;52.284;8.032;2022-11-04T17:15:59;10.60;99.90
7622;DHT22;3852;52.284;8.032;2022-11-04T17:18:28;10.60;99.90
7622;DHT22;3852;52.284;8.032;2022-11-04T17:20:55;10.70;99.90
7622;DHT22;3852;52.284;8.032;2022-11-04T17:23:21;10.70;99.90
7622;DHT22;3852;52.284;8.032;2022-11-04T17:25:48;10.80;99.90
7622;DHT22;3852;52.284;8.032;2022-11-04T17:28:14;10.90;99.90
7622;DHT22;3852;52.284;8.032;2022-11-04T17:30:41;10.90;99.90
7622;DHT22;3852;52.284;8.032;2022-11-04T17:33:15;10.90;99.90
7622;DHT22;3852;52.284;8.032;2022-11-04T17:35:45;10.80;99.90
7622;DHT22;3852;52.284;8.032;2022-11-04T17:38:15;10.80;99.90
7622;DHT22;3852;52.284;8.032;2022-11-04T17:40:42;10.80;99.90
7622;DHT22;3852;52.284;8.032;2022-11-04T17:43:35;10.90;99.90
7622;DHT22;3852;52.284;8.032;2022-11-04T17:46:19;10.90;99.90
7622;DHT22;3852;52.284;8.032;2022-11-04T17:49:25;10.90;99.90
7622;DHT22;3852;52.284;8.032;2022-11-04T17:51:53;10.90;99.90
7622;DHT22;3852;52.284;8.032;2022-11-04T17:54:21;10.90;99.90
7622;DHT22;3852;52.284;8.032;2022-11-04T17:56:47;10.90;99.90
7622;DHT22;3852;52.284;8.032;2022-11-04T17:59:14;10.90;99.90
7622;DHT22;3852;52.284;8.032;2022-11-04T18:01:42;10.80;99.90
7622;DHT22;3852;52.284;8.032;2022-11-04T18:04:17;10.90;99.90
7622;DHT22;3852;52.284;8.032;2022-11-04T18:06:47;10.90;99.90
7622;DHT22;3852;52.284;8.032;2022-11-04T18:09:14;10.90;99.90
7622;DHT22;3852;52.284;8.032;2022-11-04T18:11:41;10.90;99.90
7622;DHT22;3852;52.284;8.032;2022-11-04T18:14:26;10.90;99.90
7622;DHT22;3852;52.284;8.032;2022-11-04T18:16:52;10.90;99.90
7622;DHT22;3852;52.284;8.032;2022-11-04T18:19:20;10.90;99.90
7622;DHT22;3852;52.284;8.032;2022-11-04T18:21:47;10.90;99.90
7622;DHT22;3852;52.284;8.032;2022-11-04T18:24:14;10.90;99.90
7622;DHT22;3852;52.284;8.032;2022-11-04T18:26:41;10.90;99.90
7622;DHT22;3852;52.284;8.032;2022-11-04T18:29:07;10.90;99.90
7622;DHT22;3852;52.284;8.032;2022-11-04T18:31:39;10.90;99.90
7622;DHT22;3852;52.284;8.032;2022-11-04T18:34:11;10.90;99.90
7622;DHT22;3852;52.284;8.032;2022-11-04T18:36:38;10.90;99.90
7622;DHT22;3852;52.284;8.032;2022-11-04T18:39:06;10.90;99.90
7622;DHT22;3852;52.284;8.032;2022-11-04T18:41:36;11.00;99.90
7622;DHT22;3852;52.284;8.032;2022-11-04T18:44:07;11.00;99.90
7622;DHT22;3852;52.284;8.032;2022-11-04T18:46:41;11.00;99.90
7622;DHT22;3852;52.284;8.032;2022-11-04T18:49:07;10.90;99.90
7622;DHT22;3852;52.284;8.032;2022-11-04T18:51:34;10.90;99.90
7622;DHT22;3852;52.284;8.032;2022-11-04T18:54:03;10.80;99.90